Preview of NWS' New Version of Forecast
This preview is not operational and should not be used for support decisions.

Terminal Aerodrome Forecast (TAF)

Issued by National Weather Service (NWS)

                            
631 
FTUS42 KKEY 270505 AAB
TAFMTH
TAF AMD
KMTH 270505Z 2705/2724 13018G28KT P6SM -RA VCSH SCT014 SCT020
      BKN030
      TEMPO 2705/2706 16025G35KT 1SM +SHRA BKN010 BKN014 OVC025
     FM270900 18026G35KT 5SM -RA VCSH SCT012 OVC025
     FM271500 17018G25KT P6SM VCSH SCT015 BKN050=